Encanto, Brazil
Current Conditions -  °F | °C
As of 5:00 PM on Saturday 25 Oct 2014 (Local Time) from SBJU Reporting Station
Scattered Clouds Scattered Clouds  
Wind Chill: 97°   Ceiling: Unl
Heat Index: 97°   Visibility: 6mi
Dew Point: 57°   Wind: 5mph
Humidity: 27%   Direction: 100°E
Pressure: 29.88"   Gusts: NA
Location:  6.11°S, 38.31°W
Report Text: SBJU 252000Z 10004KT 9999 SCT023 36/14 Q1012
Loading
Personal Weather Stations






























Interactive Weather Map
Tropical Storm Tracking
New forecast layout! Learn more

10-Day Weather Forecast

Advertisements
Track Severe Weather on mobile